sensor_id;sensor_type;location;lat;lon;timestamp;P1;durP1;ratioP1;P2;durP2;ratioP2
71150;SDS011;59071;42.138;24.768;2023-11-22T00:00:13;19.63;;;12.13;;
71150;SDS011;59071;42.138;24.768;2023-11-22T00:02:39;23.98;;;12.90;;
71150;SDS011;59071;42.138;24.768;2023-11-22T00:05:05;26.05;;;12.98;;
71150;SDS011;59071;42.138;24.768;2023-11-22T00:07:31;21.95;;;12.77;;
71150;SDS011;59071;42.138;24.768;2023-11-22T00:09:57;23.17;;;12.32;;
71150;SDS011;59071;42.138;24.768;2023-11-22T00:12:23;23.77;;;12.55;;
71150;SDS011;59071;42.138;24.768;2023-11-22T00:14:50;23.40;;;12.15;;
71150;SDS011;59071;42.138;24.768;2023-11-22T00:17:16;23.75;;;12.23;;
71150;SDS011;59071;42.138;24.768;2023-11-22T00:19:42;23.77;;;13.23;;
71150;SDS011;59071;42.138;24.768;2023-11-22T00:22:09;22.20;;;11.93;;
71150;SDS011;59071;42.138;24.768;2023-11-22T00:24:41;22.63;;;12.98;;
71150;SDS011;59071;42.138;24.768;2023-11-22T00:27:07;21.08;;;11.68;;
71150;SDS011;59071;42.138;24.768;2023-11-22T00:29:33;21.35;;;12.00;;
71150;SDS011;59071;42.138;24.768;2023-11-22T00:31:59;19.98;;;11.32;;
71150;SDS011;59071;42.138;24.768;2023-11-22T00:34:25;23.30;;;12.52;;
71150;SDS011;59071;42.138;24.768;2023-11-22T00:36:50;21.88;;;12.07;;
71150;SDS011;59071;42.138;24.768;2023-11-22T00:39:16;20.95;;;12.27;;
71150;SDS011;59071;42.138;24.768;2023-11-22T00:41:42;21.00;;;11.55;;
71150;SDS011;59071;42.138;24.768;2023-11-22T00:44:07;20.55;;;12.13;;
71150;SDS011;59071;42.138;24.768;2023-11-22T00:46:33;21.17;;;12.30;;
71150;SDS011;59071;42.138;24.768;2023-11-22T00:48:58;22.88;;;12.38;;
71150;SDS011;59071;42.138;24.768;2023-11-22T00:51:24;20.58;;;12.02;;
71150;SDS011;59071;42.138;24.768;2023-11-22T00:53:49;21.42;;;12.60;;
71150;SDS011;59071;42.138;24.768;2023-11-22T00:56:15;23.38;;;13.52;;
71150;SDS011;59071;42.138;24.768;2023-11-22T00:58:40;25.65;;;14.43;;
71150;SDS011;59071;42.138;24.768;2023-11-22T01:01:06;24.45;;;12.88;;
71150;SDS011;59071;42.138;24.768;2023-11-22T01:03:32;24.58;;;12.68;;
71150;SDS011;59071;42.138;24.768;2023-11-22T01:05:58;23.33;;;12.57;;
71150;SDS011;59071;42.138;24.768;2023-11-22T01:08:23;21.42;;;12.15;;
71150;SDS011;59071;42.138;24.768;2023-11-22T01:10:49;21.52;;;12.70;;
71150;SDS011;59071;42.138;24.768;2023-11-22T01:13:14;25.73;;;13.43;;
71150;SDS011;59071;42.138;24.768;2023-11-22T01:15:40;28.48;;;14.00;;
71150;SDS011;59071;42.138;24.768;2023-11-22T01:18:06;24.35;;;12.73;;
71150;SDS011;59071;42.138;24.768;2023-11-22T01:20:32;21.23;;;11.73;;
71150;SDS011;59071;42.138;24.768;2023-11-22T01:22:57;18.35;;;11.43;;
71150;SDS011;59071;42.138;24.768;2023-11-22T01:25:23;19.90;;;11.63;;
71150;SDS011;59071;42.138;24.768;2023-11-22T01:27:48;18.50;;;11.02;;
71150;SDS011;59071;42.138;24.768;2023-11-22T01:30:13;23.55;;;11.50;;
71150;SDS011;59071;42.138;24.768;2023-11-22T01:32:39;19.15;;;11.25;;
71150;SDS011;59071;42.138;24.768;2023-11-22T01:35:05;18.42;;;10.82;;
71150;SDS011;59071;42.138;24.768;2023-11-22T01:37:31;17.90;;;10.60;;
71150;SDS011;59071;42.138;24.768;2023-11-22T01:39:57;17.25;;;10.55;;
71150;SDS011;59071;42.138;24.768;2023-11-22T01:42:23;16.90;;;10.00;;
71150;SDS011;59071;42.138;24.768;2023-11-22T01:44:50;19.92;;;9.85;;
71150;SDS011;59071;42.138;24.768;2023-11-22T01:47:17;18.38;;;10.88;;
71150;SDS011;59071;42.138;24.768;2023-11-22T01:49:43;17.38;;;10.35;;
71150;SDS011;59071;42.138;24.768;2023-11-22T01:52:09;21.67;;;10.55;;
71150;SDS011;59071;42.138;24.768;2023-11-22T01:54:35;17.42;;;10.70;;
71150;SDS011;59071;42.138;24.768;2023-11-22T01:57:02;18.80;;;10.38;;
71150;SDS011;59071;42.138;24.768;2023-11-22T01:59:28;18.42;;;10.38;;
71150;SDS011;59071;42.138;24.768;2023-11-22T02:01:54;17.58;;;10.43;;
71150;SDS011;59071;42.138;24.768;2023-11-22T02:04:20;18.90;;;10.95;;
71150;SDS011;59071;42.138;24.768;2023-11-22T02:06:46;16.98;;;10.20;;
71150;SDS011;59071;42.138;24.768;2023-11-22T02:09:12;19.20;;;11.07;;
71150;SDS011;59071;42.138;24.768;2023-11-22T02:11:41;18.58;;;10.57;;
71150;SDS011;59071;42.138;24.768;2023-11-22T02:14:07;18.52;;;11.00;;
71150;SDS011;59071;42.138;24.768;2023-11-22T02:16:34;19.83;;;11.00;;
71150;SDS011;59071;42.138;24.768;2023-11-22T02:18:59;18.65;;;11.80;;
71150;SDS011;59071;42.138;24.768;2023-11-22T02:21:25;23.00;;;11.13;;
71150;SDS011;59071;42.138;24.768;2023-11-22T02:23:50;19.80;;;11.52;;
71150;SDS011;59071;42.138;24.768;2023-11-22T02:26:16;20.70;;;10.43;;
71150;SDS011;59071;42.138;24.768;2023-11-22T02:28:43;18.17;;;11.70;;
71150;SDS011;59071;42.138;24.768;2023-11-22T02:31:09;23.33;;;12.13;;
71150;SDS011;59071;42.138;24.768;2023-11-22T02:33:34;19.60;;;11.40;;
71150;SDS011;59071;42.138;24.768;2023-11-22T02:36:00;21.83;;;11.45;;
71150;SDS011;59071;42.138;24.768;2023-11-22T02:38:27;20.42;;;11.63;;
71150;SDS011;59071;42.138;24.768;2023-11-22T02:40:53;22.58;;;12.48;;
71150;SDS011;59071;42.138;24.768;2023-11-22T02:43:19;20.52;;;12.18;;
71150;SDS011;59071;42.138;24.768;2023-11-22T02:45:44;22.73;;;12.57;;
71150;SDS011;59071;42.138;24.768;2023-11-22T02:48:10;20.45;;;11.48;;
71150;SDS011;59071;42.138;24.768;2023-11-22T02:50:36;22.05;;;11.82;;
71150;SDS011;59071;42.138;24.768;2023-11-22T02:53:04;18.77;;;11.50;;
71150;SDS011;59071;42.138;24.768;2023-11-22T02:55:30;23.20;;;12.38;;
71150;SDS011;59071;42.138;24.768;2023-11-22T02:57:55;21.92;;;12.50;;
71150;SDS011;59071;42.138;24.768;2023-11-22T03:00:21;20.80;;;12.85;;
71150;SDS011;59071;42.138;24.768;2023-11-22T03:02:46;22.98;;;13.45;;
71150;SDS011;59071;42.138;24.768;2023-11-22T03:05:12;23.27;;;12.95;;
71150;SDS011;59071;42.138;24.768;2023-11-22T03:07:39;19.55;;;12.35;;
71150;SDS011;59071;42.138;24.768;2023-11-22T03:10:06;26.17;;;13.55;;
71150;SDS011;59071;42.138;24.768;2023-11-22T03:12:34;24.60;;;13.43;;
71150;SDS011;59071;42.138;24.768;2023-11-22T03:15:00;26.17;;;14.18;;
71150;SDS011;59071;42.138;24.768;2023-11-22T03:17:27;23.95;;;12.73;;
71150;SDS011;59071;42.138;24.768;2023-11-22T03:19:56;23.40;;;13.32;;
71150;SDS011;59071;42.138;24.768;2023-11-22T03:22:23;21.88;;;12.32;;
71150;SDS011;59071;42.138;24.768;2023-11-22T03:24:49;21.98;;;12.50;;
71150;SDS011;59071;42.138;24.768;2023-11-22T03:27:15;25.02;;;13.75;;
71150;SDS011;59071;42.138;24.768;2023-11-22T03:29:40;23.10;;;12.95;;
71150;SDS011;59071;42.138;24.768;2023-11-22T03:32:06;23.98;;;13.38;;
71150;SDS011;59071;42.138;24.768;2023-11-22T03:34:31;28.17;;;14.43;;
71150;SDS011;59071;42.138;24.768;2023-11-22T03:36:57;25.20;;;13.48;;
71150;SDS011;59071;42.138;24.768;2023-11-22T03:39:22;25.27;;;12.93;;
71150;SDS011;59071;42.138;24.768;2023-11-22T03:41:48;24.80;;;13.70;;
71150;SDS011;59071;42.138;24.768;2023-11-22T03:44:13;24.02;;;13.43;;
71150;SDS011;59071;42.138;24.768;2023-11-22T03:46:39;26.95;;;14.88;;
71150;SDS011;59071;42.138;24.768;2023-11-22T03:49:04;27.58;;;13.95;;
71150;SDS011;59071;42.138;24.768;2023-11-22T03:51:33;27.23;;;13.85;;
71150;SDS011;59071;42.138;24.768;2023-11-22T03:53:59;28.20;;;14.02;;
71150;SDS011;59071;42.138;24.768;2023-11-22T03:56:25;28.55;;;14.93;;
71150;SDS011;59071;42.138;24.768;2023-11-22T03:58:51;28.38;;;14.63;;
71150;SDS011;59071;42.138;24.768;2023-11-22T04:01:17;29.02;;;14.27;;
71150;SDS011;59071;42.138;24.768;2023-11-22T04:03:43;26.17;;;14.38;;
71150;SDS011;59071;42.138;24.768;2023-11-22T04:06:09;28.27;;;13.90;;
71150;SDS011;59071;42.138;24.768;2023-11-22T04:08:34;22.88;;;14.13;;
71150;SDS011;59071;42.138;24.768;2023-11-22T04:11:00;26.70;;;14.10;;
71150;SDS011;59071;42.138;24.768;2023-11-22T04:13:27;27.60;;;14.27;;
71150;SDS011;59071;42.138;24.768;2023-11-22T04:15:52;25.58;;;13.55;;
71150;SDS011;59071;42.138;24.768;2023-11-22T04:18:17;24.52;;;13.95;;
71150;SDS011;59071;42.138;24.768;2023-11-22T04:20:43;24.45;;;14.77;;
71150;SDS011;59071;42.138;24.768;2023-11-22T04:23:09;27.75;;;14.60;;
71150;SDS011;59071;42.138;24.768;2023-11-22T04:25:36;24.38;;;14.02;;
71150;SDS011;59071;42.138;24.768;2023-11-22T04:28:02;26.73;;;14.05;;
71150;SDS011;59071;42.138;24.768;2023-11-22T04:30:28;26.83;;;14.48;;
71150;SDS011;59071;42.138;24.768;2023-11-22T04:32:54;31.45;;;14.57;;
71150;SDS011;59071;42.138;24.768;2023-11-22T04:35:19;28.00;;;13.75;;
71150;SDS011;59071;42.138;24.768;2023-11-22T04:37:45;25.77;;;13.68;;
71150;SDS011;59071;42.138;24.768;2023-11-22T04:40:12;25.90;;;13.95;;
71150;SDS011;59071;42.138;24.768;2023-11-22T04:42:39;24.33;;;13.65;;
71150;SDS011;59071;42.138;24.768;2023-11-22T04:45:05;26.83;;;13.60;;
71150;SDS011;59071;42.138;24.768;2023-11-22T04:47:31;26.08;;;14.13;;
71150;SDS011;59071;42.138;24.768;2023-11-22T04:49:57;23.92;;;13.75;;
71150;SDS011;59071;42.138;24.768;2023-11-22T04:52:22;31.55;;;15.20;;
71150;SDS011;59071;42.138;24.768;2023-11-22T04:54:48;30.52;;;15.05;;
71150;SDS011;59071;42.138;24.768;2023-11-22T04:57:13;32.22;;;15.75;;
71150;SDS011;59071;42.138;24.768;2023-11-22T04:59:38;32.45;;;16.20;;
71150;SDS011;59071;42.138;24.768;2023-11-22T05:02:05;32.53;;;16.50;;
71150;SDS011;59071;42.138;24.768;2023-11-22T05:04:32;25.90;;;15.25;;
71150;SDS011;59071;42.138;24.768;2023-11-22T05:06:57;26.95;;;14.48;;
71150;SDS011;59071;42.138;24.768;2023-11-22T05:09:23;32.25;;;15.02;;
71150;SDS011;59071;42.138;24.768;2023-11-22T05:11:49;25.02;;;14.60;;
71150;SDS011;59071;42.138;24.768;2023-11-22T05:14:14;27.27;;;13.82;;
71150;SDS011;59071;42.138;24.768;2023-11-22T05:16:39;24.45;;;12.98;;
71150;SDS011;59071;42.138;24.768;2023-11-22T05:19:05;21.85;;;12.65;;
71150;SDS011;59071;42.138;24.768;2023-11-22T05:21:30;22.27;;;12.85;;
71150;SDS011;59071;42.138;24.768;2023-11-22T05:23:57;19.98;;;11.63;;
71150;SDS011;59071;42.138;24.768;2023-11-22T05:26:22;16.85;;;10.60;;
71150;SDS011;59071;42.138;24.768;2023-11-22T05:28:48;25.75;;;11.57;;
71150;SDS011;59071;42.138;24.768;2023-11-22T05:31:13;19.80;;;11.35;;
71150;SDS011;59071;42.138;24.768;2023-11-22T05:33:39;17.63;;;11.23;;
71150;SDS011;59071;42.138;24.768;2023-11-22T05:36:05;19.77;;;11.93;;
71150;SDS011;59071;42.138;24.768;2023-11-22T05:38:31;18.75;;;10.90;;
71150;SDS011;59071;42.138;24.768;2023-11-22T05:40:58;20.48;;;10.68;;
71150;SDS011;59071;42.138;24.768;2023-11-22T05:43:24;19.77;;;10.30;;
71150;SDS011;59071;42.138;24.768;2023-11-22T05:45:51;21.50;;;11.75;;
71150;SDS011;59071;42.138;24.768;2023-11-22T05:48:20;19.25;;;11.30;;
71150;SDS011;59071;42.138;24.768;2023-11-22T05:50:46;18.25;;;11.00;;
71150;SDS011;59071;42.138;24.768;2023-11-22T05:53:12;20.60;;;10.95;;
71150;SDS011;59071;42.138;24.768;2023-11-22T05:55:37;18.88;;;10.82;;
71150;SDS011;59071;42.138;24.768;2023-11-22T05:58:03;20.30;;;11.07;;
71150;SDS011;59071;42.138;24.768;2023-11-22T06:00:29;20.10;;;10.82;;
71150;SDS011;59071;42.138;24.768;2023-11-22T06:02:54;19.80;;;11.13;;
71150;SDS011;59071;42.138;24.768;2023-11-22T06:05:20;19.77;;;11.07;;
71150;SDS011;59071;42.138;24.768;2023-11-22T06:07:46;19.70;;;11.55;;
71150;SDS011;59071;42.138;24.768;2023-11-22T06:10:12;19.25;;;11.48;;
71150;SDS011;59071;42.138;24.768;2023-11-22T06:12:40;24.63;;;11.68;;
71150;SDS011;59071;42.138;24.768;2023-11-22T06:15:06;19.02;;;11.70;;
71150;SDS011;59071;42.138;24.768;2023-11-22T06:17:32;23.75;;;12.77;;
71150;SDS011;59071;42.138;24.768;2023-11-22T06:19:58;25.70;;;13.02;;
71150;SDS011;59071;42.138;24.768;2023-11-22T06:22:23;26.25;;;12.93;;
71150;SDS011;59071;42.138;24.768;2023-11-22T06:24:49;25.30;;;13.65;;
71150;SDS011;59071;42.138;24.768;2023-11-22T06:27:14;27.27;;;13.35;;
71150;SDS011;59071;42.138;24.768;2023-11-22T06:29:42;20.75;;;12.88;;
71150;SDS011;59071;42.138;24.768;2023-11-22T06:32:12;25.30;;;13.88;;
71150;SDS011;59071;42.138;24.768;2023-11-22T06:34:37;22.42;;;13.05;;
71150;SDS011;59071;42.138;24.768;2023-11-22T06:37:03;21.45;;;12.68;;
71150;SDS011;59071;42.138;24.768;2023-11-22T06:39:29;25.75;;;12.70;;
71150;SDS011;59071;42.138;24.768;2023-11-22T06:41:54;21.92;;;12.63;;
71150;SDS011;59071;42.138;24.768;2023-11-22T06:44:20;21.35;;;12.93;;
71150;SDS011;59071;42.138;24.768;2023-11-22T06:46:46;22.88;;;13.32;;
71150;SDS011;59071;42.138;24.768;2023-11-22T06:49:11;21.92;;;12.50;;
71150;SDS011;59071;42.138;24.768;2023-11-22T06:51:36;23.90;;;13.13;;
71150;SDS011;59071;42.138;24.768;2023-11-22T06:54:02;20.63;;;12.57;;
71150;SDS011;59071;42.138;24.768;2023-11-22T06:56:28;21.02;;;11.98;;
71150;SDS011;59071;42.138;24.768;2023-11-22T06:58:53;26.25;;;12.77;;
71150;SDS011;59071;42.138;24.768;2023-11-22T07:01:22;21.00;;;12.60;;
71150;SDS011;59071;42.138;24.768;2023-11-22T07:03:48;23.20;;;12.48;;
71150;SDS011;59071;42.138;24.768;2023-11-22T07:06:14;24.98;;;12.80;;
71150;SDS011;59071;42.138;24.768;2023-11-22T07:08:40;23.67;;;12.38;;
71150;SDS011;59071;42.138;24.768;2023-11-22T07:11:05;20.02;;;12.57;;
71150;SDS011;59071;42.138;24.768;2023-11-22T07:13:34;19.77;;;12.07;;
71150;SDS011;59071;42.138;24.768;2023-11-22T07:16:01;20.25;;;12.73;;
71150;SDS011;59071;42.138;24.768;2023-11-22T07:18:27;29.20;;;13.07;;
71150;SDS011;59071;42.138;24.768;2023-11-22T07:20:53;25.30;;;13.93;;
71150;SDS011;59071;42.138;24.768;2023-11-22T07:23:20;22.65;;;13.82;;
71150;SDS011;59071;42.138;24.768;2023-11-22T07:25:50;25.83;;;13.95;;
71150;SDS011;59071;42.138;24.768;2023-11-22T07:28:15;23.42;;;13.77;;
71150;SDS011;59071;42.138;24.768;2023-11-22T07:30:41;25.60;;;14.30;;
71150;SDS011;59071;42.138;24.768;2023-11-22T07:33:06;22.90;;;12.68;;
71150;SDS011;59071;42.138;24.768;2023-11-22T07:35:32;22.90;;;13.18;;
71150;SDS011;59071;42.138;24.768;2023-11-22T07:37:58;22.10;;;13.40;;
71150;SDS011;59071;42.138;24.768;2023-11-22T07:40:23;22.17;;;13.05;;
71150;SDS011;59071;42.138;24.768;2023-11-22T07:42:49;25.15;;;14.13;;
71150;SDS011;59071;42.138;24.768;2023-11-22T07:45:14;29.92;;;15.02;;
71150;SDS011;59071;42.138;24.768;2023-11-22T07:47:40;27.20;;;14.98;;
71150;SDS011;59071;42.138;24.768;2023-11-22T07:50:10;32.28;;;16.98;;
71150;SDS011;59071;42.138;24.768;2023-11-22T07:55:03;27.50;;;15.82;;
71150;SDS011;59071;42.138;24.768;2023-11-22T07:57:33;32.63;;;16.60;;
71150;SDS011;59071;42.138;24.768;2023-11-22T08:00:01;33.63;;;18.50;;
71150;SDS011;59071;42.138;24.768;2023-11-22T08:02:29;37.50;;;20.70;;
71150;SDS011;59071;42.138;24.768;2023-11-22T08:04:56;42.72;;;20.65;;
71150;SDS011;59071;42.138;24.768;2023-11-22T08:07:21;47.60;;;20.70;;
71150;SDS011;59071;42.138;24.768;2023-11-22T08:09:47;39.97;;;21.05;;
71150;SDS011;59071;42.138;24.768;2023-11-22T08:12:13;43.72;;;21.60;;
71150;SDS011;59071;42.138;24.768;2023-11-22T08:14:38;40.50;;;21.58;;
71150;SDS011;59071;42.138;24.768;2023-11-22T08:17:05;38.08;;;20.63;;
71150;SDS011;59071;42.138;24.768;2023-11-22T08:19:31;40.80;;;20.83;;
71150;SDS011;59071;42.138;24.768;2023-11-22T08:21:57;33.50;;;19.33;;
71150;SDS011;59071;42.138;24.768;2023-11-22T08:24:22;39.92;;;21.52;;
71150;SDS011;59071;42.138;24.768;2023-11-22T08:26:48;34.88;;;20.08;;
71150;SDS011;59071;42.138;24.768;2023-11-22T08:29:13;35.35;;;20.20;;
71150;SDS011;59071;42.138;24.768;2023-11-22T08:31:39;36.88;;;21.02;;
71150;SDS011;59071;42.138;24.768;2023-11-22T08:34:05;33.90;;;19.67;;
71150;SDS011;59071;42.138;24.768;2023-11-22T08:36:32;41.63;;;20.52;;
71150;SDS011;59071;42.138;24.768;2023-11-22T08:38:59;38.22;;;19.33;;
71150;SDS011;59071;42.138;24.768;2023-11-22T08:41:26;36.15;;;19.90;;
71150;SDS011;59071;42.138;24.768;2023-11-22T08:43:54;41.43;;;21.23;;
71150;SDS011;59071;42.138;24.768;2023-11-22T08:46:20;44.40;;;23.70;;
71150;SDS011;59071;42.138;24.768;2023-11-22T08:48:45;46.65;;;26.20;;
71150;SDS011;59071;42.138;24.768;2023-11-22T08:51:10;48.55;;;24.63;;
71150;SDS011;59071;42.138;24.768;2023-11-22T08:53:36;36.83;;;19.92;;
71150;SDS011;59071;42.138;24.768;2023-11-22T08:56:03;34.60;;;18.33;;
71150;SDS011;59071;42.138;24.768;2023-11-22T08:58:31;31.42;;;17.70;;
71150;SDS011;59071;42.138;24.768;2023-11-22T09:00:56;33.13;;;18.88;;
71150;SDS011;59071;42.138;24.768;2023-11-22T09:03:23;30.08;;;18.10;;
71150;SDS011;59071;42.138;24.768;2023-11-22T09:05:49;33.05;;;19.23;;
71150;SDS011;59071;42.138;24.768;2023-11-22T09:08:14;36.67;;;19.15;;
71150;SDS011;59071;42.138;24.768;2023-11-22T09:10:41;33.97;;;20.35;;
71150;SDS011;59071;42.138;24.768;2023-11-22T09:13:08;39.65;;;20.23;;
71150;SDS011;59071;42.138;24.768;2023-11-22T09:15:34;36.70;;;20.70;;
71150;SDS011;59071;42.138;24.768;2023-11-22T09:18:00;38.05;;;20.23;;
71150;SDS011;59071;42.138;24.768;2023-11-22T09:20:26;33.10;;;18.92;;
71150;SDS011;59071;42.138;24.768;2023-11-22T09:22:52;30.92;;;17.60;;
71150;SDS011;59071;42.138;24.768;2023-11-22T09:25:23;32.08;;;18.10;;
71150;SDS011;59071;42.138;24.768;2023-11-22T09:27:52;34.25;;;18.60;;
71150;SDS011;59071;42.138;24.768;2023-11-22T09:30:24;26.73;;;16.17;;
71150;SDS011;59071;42.138;24.768;2023-11-22T09:33:08;28.13;;;15.23;;
71150;SDS011;59071;42.138;24.768;2023-11-22T09:35:35;27.15;;;15.48;;
71150;SDS011;59071;42.138;24.768;2023-11-22T09:38:02;27.08;;;15.52;;
71150;SDS011;59071;42.138;24.768;2023-11-22T09:40:31;33.88;;;17.40;;
71150;SDS011;59071;42.138;24.768;2023-11-22T09:43:00;28.65;;;16.05;;
71150;SDS011;59071;42.138;24.768;2023-11-22T09:45:27;26.40;;;16.25;;
71150;SDS011;59071;42.138;24.768;2023-11-22T09:47:52;22.70;;;14.52;;
71150;SDS011;59071;42.138;24.768;2023-11-22T09:50:20;26.20;;;13.40;;
71150;SDS011;59071;42.138;24.768;2023-11-22T09:52:55;23.48;;;14.10;;
71150;SDS011;59071;42.138;24.768;2023-11-22T09:55:24;21.67;;;13.70;;
71150;SDS011;59071;42.138;24.768;2023-11-22T09:57:53;24.58;;;14.48;;
71150;SDS011;59071;42.138;24.768;2023-11-22T10:00:19;27.48;;;13.80;;
71150;SDS011;59071;42.138;24.768;2023-11-22T10:02:46;28.20;;;15.10;;
71150;SDS011;59071;42.138;24.768;2023-11-22T10:05:12;27.27;;;14.00;;
71150;SDS011;59071;42.138;24.768;2023-11-22T10:07:39;21.55;;;13.90;;
71150;SDS011;59071;42.138;24.768;2023-11-22T10:10:05;22.73;;;13.93;;
71150;SDS011;59071;42.138;24.768;2023-11-22T10:12:31;25.73;;;12.95;;
71150;SDS011;59071;42.138;24.768;2023-11-22T10:15:11;21.42;;;11.88;;
71150;SDS011;59071;42.138;24.768;2023-11-22T10:17:44;17.83;;;10.80;;
71150;SDS011;59071;42.138;24.768;2023-11-22T10:20:12;17.67;;;12.00;;
71150;SDS011;59071;42.138;24.768;2023-11-22T10:22:44;19.88;;;11.90;;
71150;SDS011;59071;42.138;24.768;2023-11-22T10:25:12;21.88;;;13.38;;
71150;SDS011;59071;42.138;24.768;2023-11-22T10:27:39;18.08;;;12.73;;
71150;SDS011;59071;42.138;24.768;2023-11-22T10:30:05;19.35;;;12.43;;
71150;SDS011;59071;42.138;24.768;2023-11-22T10:32:36;20.48;;;12.75;;
71150;SDS011;59071;42.138;24.768;2023-11-22T10:35:03;19.95;;;12.85;;
71150;SDS011;59071;42.138;24.768;2023-11-22T10:37:29;23.27;;;14.32;;
71150;SDS011;59071;42.138;24.768;2023-11-22T10:39:54;22.33;;;13.63;;
71150;SDS011;59071;42.138;24.768;2023-11-22T10:42:20;23.48;;;14.40;;
71150;SDS011;59071;42.138;24.768;2023-11-22T10:44:48;23.15;;;13.45;;
71150;SDS011;59071;42.138;24.768;2023-11-22T10:47:14;29.25;;;14.90;;
71150;SDS011;59071;42.138;24.768;2023-11-22T10:49:42;24.40;;;14.50;;
71150;SDS011;59071;42.138;24.768;2023-11-22T10:52:08;22.65;;;13.85;;
71150;SDS011;59071;42.138;24.768;2023-11-22T10:57:06;21.42;;;12.45;;
71150;SDS011;59071;42.138;24.768;2023-11-22T10:59:32;23.45;;;12.70;;
71150;SDS011;59071;42.138;24.768;2023-11-22T11:01:58;20.15;;;12.02;;
71150;SDS011;59071;42.138;24.768;2023-11-22T11:04:51;21.42;;;13.00;;
71150;SDS011;59071;42.138;24.768;2023-11-22T11:07:21;19.02;;;12.65;;
71150;SDS011;59071;42.138;24.768;2023-11-22T11:09:52;18.88;;;12.10;;
71150;SDS011;59071;42.138;24.768;2023-11-22T11:12:22;22.00;;;12.40;;
71150;SDS011;59071;42.138;24.768;2023-11-22T11:14:48;21.73;;;11.73;;
71150;SDS011;59071;42.138;24.768;2023-11-22T11:17:14;20.02;;;12.02;;
71150;SDS011;59071;42.138;24.768;2023-11-22T11:19:40;16.52;;;10.98;;
71150;SDS011;59071;42.138;24.768;2023-11-22T11:22:09;18.70;;;11.10;;
71150;SDS011;59071;42.138;24.768;2023-11-22T11:27:06;15.50;;;10.15;;
71150;SDS011;59071;42.138;24.768;2023-11-22T11:29:32;14.10;;;10.43;;
71150;SDS011;59071;42.138;24.768;2023-11-22T11:31:59;16.80;;;10.25;;
71150;SDS011;59071;42.138;24.768;2023-11-22T11:34:27;17.27;;;10.43;;
71150;SDS011;59071;42.138;24.768;2023-11-22T11:36:54;19.30;;;10.13;;
71150;SDS011;59071;42.138;24.768;2023-11-22T11:39:24;17.48;;;11.15;;
71150;SDS011;59071;42.138;24.768;2023-11-22T11:42:06;15.70;;;11.20;;
71150;SDS011;59071;42.138;24.768;2023-11-22T11:44:33;15.13;;;10.02;;
71150;SDS011;59071;42.138;24.768;2023-11-22T11:46:58;16.33;;;10.10;;
71150;SDS011;59071;42.138;24.768;2023-11-22T11:49:23;17.90;;;10.82;;
71150;SDS011;59071;42.138;24.768;2023-11-22T11:51:50;17.27;;;10.10;;
71150;SDS011;59071;42.138;24.768;2023-11-22T11:54:16;15.60;;;9.98;;
71150;SDS011;59071;42.138;24.768;2023-11-22T11:56:41;16.52;;;9.57;;
71150;SDS011;59071;42.138;24.768;2023-11-22T11:59:08;14.77;;;9.57;;
71150;SDS011;59071;42.138;24.768;2023-11-22T12:01:34;15.55;;;9.55;;
71150;SDS011;59071;42.138;24.768;2023-11-22T12:04:00;16.98;;;10.05;;
71150;SDS011;59071;42.138;24.768;2023-11-22T12:06:28;17.17;;;10.20;;
71150;SDS011;59071;42.138;24.768;2023-11-22T12:08:54;15.15;;;9.18;;
71150;SDS011;59071;42.138;24.768;2023-11-22T12:11:19;14.40;;;9.48;;
71150;SDS011;59071;42.138;24.768;2023-11-22T12:13:45;15.35;;;9.88;;
71150;SDS011;59071;42.138;24.768;2023-11-22T12:16:15;14.75;;;10.07;;
71150;SDS011;59071;42.138;24.768;2023-11-22T12:18:45;17.13;;;10.23;;
71150;SDS011;59071;42.138;24.768;2023-11-22T12:21:12;20.27;;;10.95;;
71150;SDS011;59071;42.138;24.768;2023-11-22T12:23:39;16.02;;;9.70;;
71150;SDS011;59071;42.138;24.768;2023-11-22T12:26:09;14.07;;;9.57;;
71150;SDS011;59071;42.138;24.768;2023-11-22T12:28:37;16.27;;;10.63;;
71150;SDS011;59071;42.138;24.768;2023-11-22T12:31:08;16.27;;;10.15;;
71150;SDS011;59071;42.138;24.768;2023-11-22T12:33:35;15.55;;;9.50;;
71150;SDS011;59071;42.138;24.768;2023-11-22T12:36:05;17.40;;;10.63;;
71150;SDS011;59071;42.138;24.768;2023-11-22T12:38:32;16.63;;;10.30;;
71150;SDS011;59071;42.138;24.768;2023-11-22T12:40:59;14.50;;;10.00;;
71150;SDS011;59071;42.138;24.768;2023-11-22T12:43:24;17.77;;;10.10;;
71150;SDS011;59071;42.138;24.768;2023-11-22T12:46:03;13.80;;;9.55;;
71150;SDS011;59071;42.138;24.768;2023-11-22T12:48:38;14.70;;;9.93;;
71150;SDS011;59071;42.138;24.768;2023-11-22T12:51:14;19.63;;;11.07;;
71150;SDS011;59071;42.138;24.768;2023-11-22T12:53:40;16.30;;;9.70;;
71150;SDS011;59071;42.138;24.768;2023-11-22T12:56:05;17.40;;;10.25;;
71150;SDS011;59071;42.138;24.768;2023-11-22T12:58:31;18.02;;;10.00;;
71150;SDS011;59071;42.138;24.768;2023-11-22T13:00:58;17.27;;;10.45;;
71150;SDS011;59071;42.138;24.768;2023-11-22T13:03:25;15.77;;;10.07;;
71150;SDS011;59071;42.138;24.768;2023-11-22T13:05:52;17.55;;;9.77;;
71150;SDS011;59071;42.138;24.768;2023-11-22T13:08:19;17.25;;;9.93;;
71150;SDS011;59071;42.138;24.768;2023-11-22T13:10:47;15.13;;;9.98;;
71150;SDS011;59071;42.138;24.768;2023-11-22T13:13:21;15.38;;;10.20;;
71150;SDS011;59071;42.138;24.768;2023-11-22T13:15:48;15.93;;;9.95;;
71150;SDS011;59071;42.138;24.768;2023-11-22T13:18:14;15.35;;;9.65;;
71150;SDS011;59071;42.138;24.768;2023-11-22T13:20:43;14.63;;;9.98;;
71150;SDS011;59071;42.138;24.768;2023-11-22T13:23:09;14.23;;;9.70;;
71150;SDS011;59071;42.138;24.768;2023-11-22T13:25:35;14.75;;;9.63;;
71150;SDS011;59071;42.138;24.768;2023-11-22T13:28:01;15.23;;;9.80;;
71150;SDS011;59071;42.138;24.768;2023-11-22T13:30:27;22.08;;;10.35;;
71150;SDS011;59071;42.138;24.768;2023-11-22T13:32:53;23.45;;;9.98;;
71150;SDS011;59071;42.138;24.768;2023-11-22T13:35:21;16.88;;;9.50;;
71150;SDS011;59071;42.138;24.768;2023-11-22T13:37:47;15.20;;;10.07;;
71150;SDS011;59071;42.138;24.768;2023-11-22T13:40:17;12.50;;;9.05;;
71150;SDS011;59071;42.138;24.768;2023-11-22T13:42:50;17.40;;;9.88;;
71150;SDS011;59071;42.138;24.768;2023-11-22T13:45:19;12.95;;;9.10;;
71150;SDS011;59071;42.138;24.768;2023-11-22T13:47:46;13.52;;;9.77;;
71150;SDS011;59071;42.138;24.768;2023-11-22T13:50:16;15.77;;;9.70;;
71150;SDS011;59071;42.138;24.768;2023-11-22T13:52:51;16.55;;;9.90;;
71150;SDS011;59071;42.138;24.768;2023-11-22T13:55:18;19.83;;;10.55;;
71150;SDS011;59071;42.138;24.768;2023-11-22T13:57:48;17.33;;;10.13;;
71150;SDS011;59071;42.138;24.768;2023-11-22T14:00:18;20.77;;;10.30;;
71150;SDS011;59071;42.138;24.768;2023-11-22T14:02:53;17.02;;;10.35;;
71150;SDS011;59071;42.138;24.768;2023-11-22T14:05:25;15.38;;;10.43;;
71150;SDS011;59071;42.138;24.768;2023-11-22T14:07:53;18.80;;;11.50;;
71150;SDS011;59071;42.138;24.768;2023-11-22T14:10:19;16.52;;;10.75;;
71150;SDS011;59071;42.138;24.768;2023-11-22T14:12:47;17.65;;;11.13;;
71150;SDS011;59071;42.138;24.768;2023-11-22T14:15:13;16.33;;;10.88;;